Time;durP1;ratioP1;P1;durP2;ratioP2;P2;SDS_P1;SDS_P2;PMS_P1;PMS_P2;Temp;Humidity;BMP_temperature;BMP_pressure;BME280_temperature;BME280_humidity;BME280_pressure;Samples;Min_cycle;Max_cycle;Signal;HPM_P1;HPM_P2
2023/10/30 00:00:47;;;;;;;11.27;2.73;;;11.20;99.90;;;;;;5089434;28;20547;-59
2023/10/30 00:03:15;;;;;;;10.03;2.70;;;11.10;99.90;;;;;;5087838;28;20227;-59
2023/10/30 00:05:45;;;;;;;10.07;2.60;;;11.20;99.90;;;;;;5087073;28;20222;-59
2023/10/30 00:08:13;;;;;;;8.33;2.83;;;11.20;99.90;;;;;;5089034;28;20221;-59
2023/10/30 00:10:42;;;;;;;10.17;2.70;;;11.20;99.90;;;;;;5073935;28;20604;-59
2023/10/30 00:13:10;;;;;;;12.03;2.23;;;11.20;99.90;;;;;;5073191;28;20219;-59
2023/10/30 00:15:39;;;;;;;14.13;3.10;;;11.20;99.90;;;;;;5089771;28;20686;-60
2023/10/30 00:18:07;;;;;;;6.30;2.47;;;11.10;99.90;;;;;;5092857;28;20203;-59
2023/10/30 00:20:37;;;;;;;13.33;3.00;;;11.10;99.90;;;;;;5092719;28;20231;-59
2023/10/30 00:23:06;;;;;;;10.83;2.67;;;11.10;99.90;;;;;;5082101;28;20220;-59
2023/10/30 00:25:35;;;;;;;7.90;3.10;;;11.20;99.90;;;;;;5086417;28;20195;-59
2023/10/30 00:28:03;;;;;;;14.67;2.90;;;11.20;99.90;;;;;;5069761;28;20192;-59
2023/10/30 00:30:32;;;;;;;6.77;2.30;;;11.20;99.90;;;;;;5088091;28;20218;-59
2023/10/30 00:33:00;;;;;;;4.40;2.33;;;11.20;99.90;;;;;;5088635;28;20585;-59
2023/10/30 00:35:28;;;;;;;9.87;2.67;;;11.10;99.90;;;;;;5090673;28;20295;-59
2023/10/30 00:37:56;;;;;;;7.80;2.43;;;11.20;99.90;;;;;;5082002;28;20211;-59
2023/10/30 00:40:26;;;;;;;9.07;2.57;;;11.10;99.90;;;;;;5082339;28;20187;-59
2023/10/30 00:42:54;;;;;;;8.17;2.50;;;11.10;99.90;;;;;;5082863;28;20212;-60
2023/10/30 00:45:22;;;;;;;7.00;2.90;;;11.10;99.90;;;;;;5087596;28;20739;-59
2023/10/30 00:47:50;;;;;;;10.73;2.90;;;11.10;99.90;;;;;;5090779;28;20577;-60
2023/10/30 00:50:19;;;;;;;9.90;2.40;;;11.10;99.90;;;;;;5068929;28;20266;-59
2023/10/30 00:52:47;;;;;;;13.07;2.70;;;11.10;99.90;;;;;;5089142;28;20211;-59
2023/10/30 00:55:15;;;;;;;13.67;3.03;;;11.10;99.90;;;;;;5091909;28;20199;-59
2023/10/30 00:57:45;;;;;;;11.33;2.50;;;11.10;99.90;;;;;;5090750;28;20215;-60
2023/10/30 01:00:15;;;;;;;6.87;2.10;;;11.10;99.90;;;;;;5077651;28;20216;-59
2023/10/30 01:02:44;;;;;;;9.37;3.20;;;11.10;99.90;;;;;;5088939;28;20250;-59
2023/10/30 01:05:13;;;;;;;15.47;2.80;;;11.10;99.90;;;;;;5085804;28;20229;-59
2023/10/30 01:07:41;;;;;;;8.50;2.70;;;11.10;99.90;;;;;;5091703;28;20673;-59
2023/10/30 01:10:10;;;;;;;12.73;2.70;;;11.20;99.90;;;;;;5078361;28;20185;-60
2023/10/30 01:12:38;;;;;;;11.87;2.80;;;11.20;99.90;;;;;;5083881;28;20216;-59
2023/10/30 01:15:09;;;;;;;9.73;2.90;;;11.20;99.90;;;;;;5081180;28;20212;-59
2023/10/30 01:17:37;;;;;;;10.97;2.70;;;11.20;99.90;;;;;;5089529;28;20277;-59
2023/10/30 01:20:07;;;;;;;12.23;2.43;;;11.20;99.90;;;;;;5090565;28;20219;-59
2023/10/30 01:22:35;;;;;;;17.23;3.37;;;11.20;99.90;;;;;;5087046;28;20216;-59
2023/10/30 01:25:04;;;;;;;4.53;2.20;;;11.30;99.90;;;;;;5084018;28;20289;-59
2023/10/30 01:27:32;;;;;;;12.97;3.00;;;11.30;99.90;;;;;;5091490;28;20215;-59
2023/10/30 01:30:00;;;;;;;11.30;2.80;;;11.30;99.90;;;;;;5084019;28;20254;-59
2023/10/30 01:32:30;;;;;;;11.77;2.57;;;11.40;99.90;;;;;;5081104;28;20225;-59
2023/10/30 01:34:59;;;;;;;8.23;2.20;;;11.40;99.90;;;;;;5061512;28;20697;-59
2023/10/30 01:37:27;;;;;;;7.97;2.30;;;11.40;99.90;;;;;;5086578;28;20200;-59
2023/10/30 01:39:55;;;;;;;8.83;2.40;;;11.40;99.90;;;;;;5084471;28;20216;-60
2023/10/30 01:42:23;;;;;;;9.60;2.33;;;11.40;99.90;;;;;;5081688;28;20211;-59
2023/10/30 01:44:55;;;;;;;6.77;2.13;;;11.40;99.90;;;;;;5090303;28;20219;-59
2023/10/30 01:47:24;;;;;;;8.30;2.60;;;11.40;99.90;;;;;;5067290;28;20940;-59
2023/10/30 01:49:56;;;;;;;13.20;3.23;;;11.40;99.90;;;;;;5090122;28;20691;-60
2023/10/30 01:52:27;;;;;;;11.97;2.40;;;11.40;99.90;;;;;;5087190;28;20210;-59
2023/10/30 01:54:58;;;;;;;7.40;2.73;;;11.40;99.90;;;;;;5070439;28;20634;-59
2023/10/30 01:57:28;;;;;;;15.13;2.60;;;11.40;99.90;;;;;;5063227;28;20560;-60
2023/10/30 01:59:57;;;;;;;6.83;2.07;;;11.40;99.90;;;;;;5065772;28;20216;-59
2023/10/30 02:02:29;;;;;;;5.53;3.03;;;11.40;99.90;;;;;;5059859;28;20224;-60
2023/10/30 02:04:59;;;;;;;10.57;2.97;;;11.40;99.90;;;;;;5067452;28;20212;-60
2023/10/30 02:07:27;;;;;;;8.73;2.10;;;11.50;99.90;;;;;;5062684;28;20575;-59
2023/10/30 02:09:56;;;;;;;10.53;2.57;;;11.50;99.90;;;;;;5062790;28;20231;-59
2023/10/30 02:12:24;;;;;;;4.10;2.20;;;11.50;99.90;;;;;;5061883;28;20225;-59
2023/10/30 02:14:52;;;;;;;9.80;2.43;;;11.50;99.90;;;;;;5046954;28;20220;-60
2023/10/30 02:17:20;;;;;;;11.43;2.57;;;11.40;99.90;;;;;;5062244;28;20218;-59
2023/10/30 02:19:49;;;;;;;7.07;2.30;;;11.40;99.90;;;;;;5072819;28;20192;-59
2023/10/30 02:22:18;;;;;;;5.20;2.10;;;11.40;99.90;;;;;;5090950;28;20191;-59
2023/10/30 02:24:46;;;;;;;13.47;2.57;;;11.40;99.90;;;;;;5085687;28;20275;-60
2023/10/30 02:27:17;;;;;;;6.57;2.47;;;11.30;99.90;;;;;;5082155;28;20220;-59
2023/10/30 02:29:45;;;;;;;8.13;2.80;;;11.30;99.90;;;;;;5065518;28;20226;-59
2023/10/30 02:32:14;;;;;;;10.20;2.60;;;11.30;99.90;;;;;;5081287;28;20644;-59
2023/10/30 02:34:42;;;;;;;8.17;2.60;;;11.30;99.90;;;;;;5087768;28;20183;-60
2023/10/30 02:37:12;;;;;;;7.30;2.47;;;11.20;99.90;;;;;;5084998;28;20199;-60
2023/10/30 02:39:40;;;;;;;5.27;2.17;;;11.20;99.90;;;;;;5079209;28;20690;-59
2023/10/30 02:42:09;;;;;;;7.00;2.20;;;11.20;99.90;;;;;;5088844;28;20219;-59
2023/10/30 02:44:38;;;;;;;7.47;2.73;;;11.10;99.90;;;;;;5082654;28;20647;-60
2023/10/30 02:47:07;;;;;;;9.93;2.67;;;11.10;99.90;;;;;;5079356;28;20381;-59
2023/10/30 02:49:35;;;;;;;8.47;2.30;;;11.00;99.90;;;;;;5084566;28;20546;-59
2023/10/30 02:52:04;;;;;;;8.43;2.40;;;11.10;99.90;;;;;;5084554;28;20207;-59
2023/10/30 02:54:32;;;;;;;13.80;2.70;;;11.00;99.90;;;;;;5093629;28;20302;-59
2023/10/30 02:57:01;;;;;;;9.10;2.40;;;11.00;99.90;;;;;;5093587;28;20211;-59
2023/10/30 02:59:29;;;;;;;10.10;2.40;;;11.00;99.90;;;;;;5092421;28;20693;-60
2023/10/30 03:01:59;;;;;;;13.23;3.00;;;11.00;99.90;;;;;;5087808;28;20218;-59
2023/10/30 03:04:27;;;;;;;13.63;2.50;;;11.00;99.90;;;;;;5090668;28;20219;-60
2023/10/30 03:06:58;;;;;;;10.03;2.60;;;11.00;99.90;;;;;;5090410;28;20247;-59
2023/10/30 03:09:26;;;;;;;9.67;2.33;;;11.00;99.90;;;;;;5088284;28;20704;-59
2023/10/30 03:11:55;;;;;;;11.00;2.60;;;11.00;99.90;;;;;;5091127;28;20310;-59
2023/10/30 03:14:24;;;;;;;18.67;2.97;;;10.90;99.90;;;;;;5091523;28;20227;-60
2023/10/30 03:16:53;;;;;;;10.07;2.73;;;10.90;99.90;;;;;;5086091;28;20237;-59
2023/10/30 03:19:23;;;;;;;6.13;2.40;;;10.90;99.90;;;;;;5088893;28;20858;-59
2023/10/30 03:21:51;;;;;;;9.03;2.07;;;10.90;99.90;;;;;;5092863;28;20251;-59
2023/10/30 03:24:20;;;;;;;9.43;2.60;;;10.90;99.90;;;;;;5091225;28;20772;-60
2023/10/30 03:26:49;;;;;;;14.67;2.90;;;10.90;99.90;;;;;;5087998;28;20216;-59
2023/10/30 03:29:17;;;;;;;11.07;2.60;;;10.90;99.90;;;;;;5085169;28;20216;-59
2023/10/30 03:31:45;;;;;;;11.20;2.80;;;10.90;99.90;;;;;;5089997;28;20672;-60
2023/10/30 03:34:16;;;;;;;11.87;2.63;;;10.90;99.90;;;;;;5073534;28;20218;-60
2023/10/30 03:36:45;;;;;;;9.57;2.60;;;10.90;99.90;;;;;;5087463;28;20721;-59
2023/10/30 03:39:14;;;;;;;9.10;2.40;;;10.80;99.90;;;;;;5089069;28;20227;-59
2023/10/30 03:41:44;;;;;;;12.77;2.80;;;10.80;99.90;;;;;;5089993;28;20215;-60
2023/10/30 03:44:12;;;;;;;16.80;3.00;;;10.80;99.90;;;;;;5085868;28;20296;-59
2023/10/30 03:46:41;;;;;;;10.67;3.13;;;10.80;99.90;;;;;;5091708;28;20265;-59
2023/10/30 03:49:09;;;;;;;11.03;2.17;;;10.80;99.90;;;;;;5086307;28;20202;-59
2023/10/30 03:51:37;;;;;;;11.13;2.30;;;10.80;99.90;;;;;;5087049;28;21417;-60
2023/10/30 03:54:08;;;;;;;8.07;2.17;;;10.80;99.90;;;;;;5088744;28;20230;-60
2023/10/30 03:56:36;;;;;;;18.43;3.00;;;10.80;99.90;;;;;;5090600;28;20219;-60
2023/10/30 03:59:04;;;;;;;8.37;2.63;;;10.80;99.90;;;;;;5084404;28;20216;-59
2023/10/30 04:01:33;;;;;;;10.63;2.90;;;10.80;99.90;;;;;;5081080;28;20230;-58
2023/10/30 04:04:01;;;;;;;11.27;3.07;;;10.80;99.90;;;;;;5088982;28;20219;-59
2023/10/30 04:06:30;;;;;;;9.00;2.60;;;10.80;99.90;;;;;;5087137;28;20712;-59
2023/10/30 04:08:58;;;;;;;11.43;2.80;;;10.80;99.90;;;;;;5067873;28;20686;-59
2023/10/30 04:11:28;;;;;;;14.30;2.90;;;10.70;99.90;;;;;;5090060;28;20838;-59
2023/10/30 04:13:56;;;;;;;9.53;2.53;;;10.80;99.90;;;;;;5085703;28;20227;-59
2023/10/30 04:16:24;;;;;;;11.67;2.50;;;10.80;99.90;;;;;;5074772;28;20195;-60
2023/10/30 04:18:53;;;;;;;8.53;2.30;;;10.80;99.90;;;;;;5089277;28;20222;-59
2023/10/30 04:21:22;;;;;;;13.93;2.70;;;10.80;99.90;;;;;;5087594;28;20639;-60
2023/10/30 04:23:50;;;;;;;14.00;2.50;;;10.80;99.90;;;;;;5087819;28;20303;-59
2023/10/30 04:26:19;;;;;;;9.53;3.07;;;10.80;99.90;;;;;;5086292;28;20219;-59
2023/10/30 04:28:49;;;;;;;14.73;2.83;;;10.80;99.90;;;;;;5080948;28;20192;-59
2023/10/30 04:31:17;;;;;;;9.70;2.40;;;10.80;99.90;;;;;;5086670;28;20191;-59
2023/10/30 04:33:45;;;;;;;9.13;2.10;;;10.80;99.90;;;;;;5065055;28;20266;-59
2023/10/30 04:36:13;;;;;;;7.83;2.57;;;10.70;99.90;;;;;;5089132;28;20296;-60
2023/10/30 04:38:42;;;;;;;11.40;2.63;;;10.80;99.90;;;;;;5089668;28;20238;-59
2023/10/30 04:41:10;;;;;;;9.17;2.53;;;10.70;99.90;;;;;;5090659;28;20215;-59
2023/10/30 04:43:38;;;;;;;11.70;2.70;;;10.80;99.90;;;;;;5085166;28;20192;-60
2023/10/30 04:46:08;;;;;;;8.90;3.03;;;10.80;99.90;;;;;;5088574;28;20217;-59
2023/10/30 04:48:37;;;;;;;7.37;2.10;;;10.80;99.90;;;;;;5088388;28;20230;-59
2023/10/30 04:51:05;;;;;;;13.00;2.80;;;10.90;99.90;;;;;;5090917;28;20255;-59
2023/10/30 04:53:33;;;;;;;11.07;2.60;;;10.80;99.90;;;;;;5088570;28;20215;-59
2023/10/30 04:56:03;;;;;;;11.93;2.70;;;10.80;99.90;;;;;;5091526;28;20701;-59
2023/10/30 04:58:32;;;;;;;10.80;2.70;;;10.80;99.90;;;;;;5085875;28;20274;-59
2023/10/30 05:01:00;;;;;;;12.17;2.40;;;10.90;99.90;;;;;;5081020;28;20642;-59
2023/10/30 05:03:30;;;;;;;10.50;2.87;;;10.90;99.90;;;;;;5083851;28;20227;-59
2023/10/30 05:06:02;;;;;;;11.63;2.60;;;10.80;99.90;;;;;;5083296;28;20789;-59
2023/10/30 05:08:30;;;;;;;7.93;2.30;;;10.70;99.90;;;;;;5085526;28;20221;-59
2023/10/30 05:11:00;;;;;;;5.70;2.30;;;10.70;99.90;;;;;;5084967;28;20234;-59
2023/10/30 05:13:29;;;;;;;7.00;2.43;;;10.70;99.90;;;;;;5088677;28;20187;-59
2023/10/30 05:15:57;;;;;;;8.07;2.23;;;10.70;99.90;;;;;;5083415;28;20223;-58
2023/10/30 05:18:25;;;;;;;14.07;2.83;;;10.70;99.90;;;;;;5086394;28;20618;-59
2023/10/30 05:20:55;;;;;;;10.63;2.50;;;10.70;99.90;;;;;;5090036;28;20223;-59
2023/10/30 05:23:24;;;;;;;11.77;2.70;;;10.70;99.90;;;;;;5085558;28;20218;-59
2023/10/30 05:25:53;;;;;;;10.53;2.60;;;10.60;99.90;;;;;;5069699;28;20239;-59
2023/10/30 05:28:21;;;;;;;13.83;2.20;;;10.60;99.90;;;;;;5091547;28;20677;-59
2023/10/30 05:30:53;;;;;;;6.57;2.53;;;10.70;99.90;;;;;;5087379;28;20615;-60
2023/10/30 05:33:22;;;;;;;13.50;2.37;;;10.70;99.90;;;;;;5088671;28;20637;-60
2023/10/30 05:35:52;;;;;;;6.73;2.20;;;10.70;99.90;;;;;;5083851;28;20787;-59
2023/10/30 05:38:22;;;;;;;13.90;2.87;;;10.70;99.90;;;;;;5083329;28;20305;-59
2023/10/30 05:40:50;;;;;;;10.53;2.80;;;10.80;99.90;;;;;;5087142;28;20221;-59
2023/10/30 05:43:19;;;;;;;8.17;2.80;;;10.80;99.90;;;;;;5091252;28;20199;-59
2023/10/30 05:45:47;;;;;;;8.37;2.50;;;10.80;99.90;;;;;;5081684;28;20218;-59
2023/10/30 05:48:16;;;;;;;10.03;2.40;;;10.80;99.90;;;;;;5066690;28;20403;-59
2023/10/30 05:50:44;;;;;;;8.23;2.30;;;10.80;99.90;;;;;;5085124;28;20215;-59
2023/10/30 05:53:12;;;;;;;9.83;2.20;;;10.80;99.90;;;;;;5088839;28;20586;-59
2023/10/30 05:55:43;;;;;;;8.80;2.67;;;10.70;99.90;;;;;;5089174;28;20218;-59
2023/10/30 05:58:12;;;;;;;6.87;2.53;;;10.70;99.90;;;;;;5089500;28;20199;-60
2023/10/30 06:00:40;;;;;;;11.40;3.13;;;10.70;99.90;;;;;;5082067;28;20294;-59
2023/10/30 06:03:09;;;;;;;14.50;2.87;;;10.70;99.90;;;;;;5066486;28;20234;-59
2023/10/30 06:05:37;;;;;;;16.97;2.50;;;10.70;99.90;;;;;;5083293;28;20309;-60
2023/10/30 06:08:05;;;;;;;16.23;2.80;;;10.70;99.90;;;;;;5083210;28;20227;-60
2023/10/30 06:10:34;;;;;;;9.87;2.60;;;10.70;99.90;;;;;;5088639;28;20195;-59
2023/10/30 06:13:03;;;;;;;8.90;2.47;;;10.70;99.90;;;;;;5081295;28;20191;-60
2023/10/30 06:15:32;;;;;;;13.80;2.90;;;10.70;99.90;;;;;;5087070;28;20223;-59
2023/10/30 06:18:00;;;;;;;13.53;2.50;;;10.70;99.90;;;;;;5086185;28;20219;-60
2023/10/30 06:20:28;;;;;;;6.63;2.17;;;10.70;99.90;;;;;;5085854;28;20215;-59
2023/10/30 06:22:57;;;;;;;11.07;2.80;;;10.70;99.90;;;;;;5086986;28;20266;-59
2023/10/30 06:25:26;;;;;;;15.23;2.50;;;10.60;99.90;;;;;;5088315;28;20188;-59
2023/10/30 06:27:54;;;;;;;15.10;2.70;;;10.60;99.90;;;;;;5083775;28;20768;-59
2023/10/30 06:30:23;;;;;;;9.83;2.70;;;10.60;99.90;;;;;;5083134;28;20237;-60
2023/10/30 06:32:51;;;;;;;13.57;2.97;;;10.60;99.90;;;;;;5086827;28;20243;-59
2023/10/30 06:35:20;;;;;;;16.77;3.03;;;10.60;99.90;;;;;;5085700;28;20223;-60
2023/10/30 06:37:48;;;;;;;9.30;2.67;;;10.60;99.90;;;;;;5088375;28;20191;-59
2023/10/30 06:40:16;;;;;;;13.33;2.60;;;10.60;99.90;;;;;;5087817;28;20192;-60
2023/10/30 06:42:45;;;;;;;9.43;2.37;;;10.60;99.90;;;;;;5088272;28;20207;-60
2023/10/30 06:45:13;;;;;;;6.93;2.50;;;10.60;99.90;;;;;;5073038;28;20238;-59
2023/10/30 06:47:44;;;;;;;7.53;2.60;;;10.60;99.90;;;;;;5088976;28;20392;-60
2023/10/30 06:50:12;;;;;;;15.13;2.77;;;10.50;99.90;;;;;;5087082;28;20219;-60
2023/10/30 06:52:40;;;;;;;9.83;2.77;;;10.60;99.90;;;;;;5084562;28;20187;-59
2023/10/30 06:55:09;;;;;;;7.23;2.33;;;10.60;99.90;;;;;;5071329;28;20212;-60
2023/10/30 06:57:38;;;;;;;12.00;3.20;;;10.60;99.90;;;;;;5088061;28;20686;-59
2023/10/30 07:00:08;;;;;;;10.53;3.00;;;10.60;99.90;;;;;;5082173;28;20227;-59
2023/10/30 07:02:36;;;;;;;10.87;2.73;;;10.70;99.90;;;;;;5081116;28;20236;-59
2023/10/30 07:05:06;;;;;;;17.77;3.53;;;10.70;99.90;;;;;;5074733;28;20215;-59
2023/10/30 07:07:35;;;;;;;14.10;3.17;;;10.70;99.90;;;;;;5086367;28;20754;-60
2023/10/30 07:10:03;;;;;;;12.53;3.10;;;10.70;99.90;;;;;;5087425;28;20195;-60
2023/10/30 07:12:31;;;;;;;20.33;3.57;;;10.80;99.90;;;;;;5084255;28;20222;-59
2023/10/30 07:15:00;;;;;;;12.77;3.40;;;10.80;99.90;;;;;;5082529;28;20253;-59
2023/10/30 07:17:28;;;;;;;13.60;3.77;;;10.90;99.90;;;;;;5083491;28;20219;-59
2023/10/30 07:19:56;;;;;;;14.03;2.80;;;10.90;99.90;;;;;;5086270;28;20656;-59
2023/10/30 07:22:27;;;;;;;7.47;3.17;;;11.00;99.90;;;;;;5064520;28;20195;-59
2023/10/30 07:24:56;;;;;;;12.33;2.83;;;11.10;99.90;;;;;;5089322;28;20265;-60
2023/10/30 07:27:24;;;;;;;12.73;3.50;;;11.10;99.90;;;;;;5082257;28;20219;-59
2023/10/30 07:29:52;;;;;;;12.83;2.80;;;11.20;99.90;;;;;;5079327;28;20863;-59
2023/10/30 07:32:21;;;;;;;11.20;3.40;;;11.30;99.90;;;;;;5087980;28;20211;-59
2023/10/30 07:34:49;;;;;;;11.00;2.83;;;11.40;99.90;;;;;;5083027;28;20203;-59
2023/10/30 07:37:19;;;;;;;11.20;2.80;;;11.40;99.90;;;;;;5091082;28;20226;-59
2023/10/30 07:39:48;;;;;;;11.30;2.90;;;11.40;99.90;;;;;;5086527;28;20216;-60
2023/10/30 07:42:16;;;;;;;15.70;3.10;;;11.50;99.90;;;;;;5089200;28;20219;-59
2023/10/30 07:44:45;;;;;;;12.90;3.13;;;11.60;99.90;;;;;;5086834;28;20615;-60
2023/10/30 07:47:13;;;;;;;11.67;2.70;;;11.60;99.90;;;;;;5085920;28;20219;-59
2023/10/30 07:49:41;;;;;;;10.70;3.13;;;11.60;99.90;;;;;;5083436;28;20286;-60
2023/10/30 07:52:10;;;;;;;11.20;2.77;;;11.60;99.90;;;;;;5089448;28;20202;-60
2023/10/30 07:54:38;;;;;;;12.57;2.93;;;11.60;99.90;;;;;;5091023;28;20227;-60
2023/10/30 07:57:09;;;;;;;9.40;2.87;;;11.60;99.90;;;;;;5083829;28;20228;-59
2023/10/30 07:59:38;;;;;;;10.67;2.83;;;11.60;99.90;;;;;;5088187;28;20254;-59
2023/10/30 08:02:08;;;;;;;5.93;2.67;;;11.60;99.90;;;;;;5085252;28;20226;-59
2023/10/30 08:04:36;;;;;;;14.57;3.10;;;11.60;99.90;;;;;;5085588;28;20985;-59
2023/10/30 08:07:05;;;;;;;9.63;2.93;;;11.60;99.90;;;;;;5089224;28;20287;-59
2023/10/30 08:09:33;;;;;;;8.47;2.77;;;11.60;99.90;;;;;;5082309;28;20670;-60
2023/10/30 08:12:02;;;;;;;13.60;3.00;;;11.70;99.90;;;;;;5083184;28;20363;-59
2023/10/30 08:14:32;;;;;;;9.77;3.23;;;11.70;99.90;;;;;;5090352;28;20219;-59
2023/10/30 08:17:04;;;;;;;10.77;3.03;;;11.70;99.90;;;;;;5093288;28;20713;-59
2023/10/30 08:19:32;;;;;;;9.27;3.43;;;11.80;99.90;;;;;;5088151;28;20250;-53
2023/10/30 08:22:00;;;;;;;9.50;3.10;;;11.90;99.90;;;;;;5080105;28;20205;-60
2023/10/30 08:24:28;;;;;;;12.00;2.70;;;11.90;99.90;;;;;;5088699;28;20215;-60
2023/10/30 08:26:57;;;;;;;7.80;2.77;;;12.00;99.90;;;;;;5087881;28;20815;-59
2023/10/30 08:29:26;;;;;;;13.50;3.20;;;12.10;99.90;;;;;;5084665;28;20239;-59
2023/10/30 08:31:56;;;;;;;10.03;2.50;;;12.10;99.90;;;;;;5087791;28;20215;-60
2023/10/30 08:34:24;;;;;;;10.50;2.80;;;12.20;99.90;;;;;;5086612;28;20291;-60
2023/10/30 08:36:53;;;;;;;10.97;2.77;;;12.30;99.90;;;;;;5087394;28;20726;-60
2023/10/30 08:39:21;;;;;;;10.60;3.13;;;12.30;99.90;;;;;;5090209;28;20707;-60
2023/10/30 08:41:49;;;;;;;6.03;2.47;;;12.40;99.90;;;;;;5082748;28;20321;-60
2023/10/30 08:44:17;;;;;;;13.93;3.00;;;12.30;99.90;;;;;;5090095;28;20227;-60
2023/10/30 08:46:46;;;;;;;14.07;3.40;;;12.30;99.90;;;;;;5086464;28;20552;-60
2023/10/30 08:49:15;;;;;;;7.47;2.80;;;12.40;99.90;;;;;;5088424;28;20198;-60
2023/10/30 08:51:44;;;;;;;9.13;2.60;;;12.30;99.90;;;;;;5089483;28;20220;-60
2023/10/30 08:54:24;;;;;;;6.83;2.60;;;12.40;99.90;;;;;;5086128;28;20288;-60
2023/10/30 08:56:52;;;;;;;5.10;2.47;;;12.30;99.90;;;;;;5086943;28;20226;-60
2023/10/30 08:59:31;;;;;;;8.63;2.93;;;12.30;99.90;;;;;;5087819;28;20689;-59
2023/10/30 09:01:59;;;;;;;9.57;3.10;;;12.30;99.90;;;;;;5086224;28;20696;-59
2023/10/30 09:04:29;;;;;;;6.87;3.00;;;12.30;99.90;;;;;;5083942;28;20189;-59
2023/10/30 09:06:58;;;;;;;8.10;3.07;;;12.30;99.90;;;;;;5087548;28;20211;-59
2023/10/30 09:09:26;;;;;;;12.60;3.20;;;12.40;99.90;;;;;;5088596;28;20239;-59
2023/10/30 09:11:55;;;;;;;11.27;2.70;;;12.40;99.90;;;;;;5086914;28;20226;-59
2023/10/30 09:14:23;;;;;;;8.50;2.77;;;12.30;99.90;;;;;;5066195;28;20237;-60
2023/10/30 09:16:53;;;;;;;12.23;3.10;;;12.30;99.90;;;;;;5087042;28;20288;-60
2023/10/30 09:19:22;;;;;;;8.47;3.10;;;12.30;99.90;;;;;;5087969;28;20287;-60
2023/10/30 09:21:52;;;;;;;12.50;3.57;;;12.20;99.90;;;;;;5064983;28;20277;-60
2023/10/30 09:24:23;;;;;;;12.03;4.00;;;12.20;99.90;;;;;;5088451;28;20258;-60
2023/10/30 09:26:52;;;;;;;8.37;3.27;;;12.10;99.90;;;;;;5067290;28;20639;-59
2023/10/30 09:29:20;;;;;;;6.03;3.10;;;12.10;99.90;;;;;;5078762;28;20222;-60
2023/10/30 09:31:49;;;;;;;9.57;3.53;;;12.00;99.90;;;;;;5080410;28;20203;-60
2023/10/30 09:34:18;;;;;;;13.77;3.50;;;12.10;99.90;;;;;;5088526;28;20191;-60
2023/10/30 09:36:46;;;;;;;12.40;3.87;;;12.00;99.90;;;;;;5072692;28;20296;-60
2023/10/30 09:39:16;;;;;;;9.83;3.40;;;12.00;99.90;;;;;;5084043;28;20243;-61
2023/10/30 09:41:46;;;;;;;9.77;3.13;;;12.00;99.90;;;;;;5089324;28;20225;-60
2023/10/30 09:44:14;;;;;;;11.40;3.30;;;11.90;99.90;;;;;;5086983;28;20219;-60
2023/10/30 09:46:43;;;;;;;9.60;3.27;;;11.90;99.90;;;;;;5088016;28;20183;-60
2023/10/30 09:49:14;;;;;;;7.80;2.90;;;11.90;99.90;;;;;;5090260;28;20282;-59
2023/10/30 09:51:46;;;;;;;7.20;3.20;;;11.90;99.90;;;;;;5086804;28;20225;-59
2023/10/30 09:54:18;;;;;;;6.90;3.17;;;11.90;99.90;;;;;;5087779;28;20226;-59
2023/10/30 09:56:48;;;;;;;11.87;3.30;;;11.90;99.90;;;;;;5083530;28;20306;-59
2023/10/30 09:59:16;;;;;;;8.60;3.17;;;11.90;99.90;;;;;;5085208;28;20723;-59
2023/10/30 10:01:47;;;;;;;6.80;3.47;;;11.90;99.90;;;;;;5084727;28;20199;-60
2023/10/30 10:04:16;;;;;;;8.23;3.27;;;11.90;99.90;;;;;;5088527;28;20196;-59
2023/10/30 10:06:45;;;;;;;10.93;3.30;;;12.00;99.90;;;;;;5062798;28;20207;-60
2023/10/30 10:09:13;;;;;;;18.50;3.73;;;12.00;99.90;;;;;;5084933;28;20218;-59
2023/10/30 10:11:43;;;;;;;11.60;3.97;;;12.00;99.90;;;;;;5082895;28;20222;-59
2023/10/30 10:14:11;;;;;;;12.50;3.80;;;12.10;99.90;;;;;;5083055;28;20223;-60
2023/10/30 10:16:40;;;;;;;9.20;3.57;;;12.10;99.90;;;;;;5083111;28;20282;-59
2023/10/30 10:19:33;;;;;;;3.80;3.37;;;12.10;99.90;;;;;;5084887;28;20192;-60
2023/10/30 10:22:02;;;;;;;11.70;4.30;;;12.10;99.90;;;;;;5079842;28;20220;-59
2023/10/30 10:24:32;;;;;;;10.70;4.50;;;12.10;99.90;;;;;;5083045;28;20239;-59
2023/10/30 10:27:04;;;;;;;12.00;4.70;;;12.10;99.90;;;;;;5085015;28;20220;-59
2023/10/30 10:29:33;;;;;;;13.13;4.33;;;12.10;99.90;;;;;;5084182;28;20276;-59
2023/10/30 10:32:01;;;;;;;7.33;4.10;;;12.10;99.90;;;;;;5082036;28;20207;-60
2023/10/30 10:34:32;;;;;;;8.23;4.40;;;12.20;99.90;;;;;;5085171;28;20240;-59
2023/10/30 10:37:01;;;;;;;8.93;4.00;;;12.20;99.90;;;;;;5082784;28;20227;-59
2023/10/30 10:39:47;;;;;;;10.23;4.30;;;12.20;99.90;;;;;;5084880;28;20258;-59
2023/10/30 10:42:20;;;;;;;9.37;4.63;;;12.30;99.90;;;;;;5081130;28;20720;-60
2023/10/30 10:44:49;;;;;;;12.83;4.60;;;12.40;99.90;;;;;;5083383;28;20245;-60
2023/10/30 10:47:18;;;;;;;14.03;4.30;;;12.40;99.90;;;;;;5083329;28;20606;-59
2023/10/30 10:49:47;;;;;;;8.03;4.63;;;12.40;99.90;;;;;;5088112;28;20203;-60
2023/10/30 10:52:17;;;;;;;8.07;4.60;;;12.50;99.90;;;;;;5084476;28;20188;-59
2023/10/30 10:54:48;;;;;;;9.80;4.40;;;12.60;99.90;;;;;;5084250;28;20219;-61
2023/10/30 10:57:21;;;;;;;10.93;4.20;;;12.60;99.90;;;;;;5082457;28;20223;-59
2023/10/30 11:00:00;;;;;;;11.67;4.17;;;12.70;99.90;;;;;;5063823;28;20219;-59
2023/10/30 11:02:30;;;;;;;6.33;4.50;;;12.70;99.90;;;;;;5083547;28;20223;-58
2023/10/30 11:04:59;;;;;;;8.17;4.33;;;12.70;99.90;;;;;;5083190;28;20219;-59
2023/10/30 11:07:36;;;;;;;7.60;4.30;;;12.70;99.90;;;;;;5086590;28;20295;-59
2023/10/30 11:10:14;;;;;;;12.63;4.77;;;12.70;99.90;;;;;;5086789;28;20678;-60
2023/10/30 11:12:57;;;;;;;9.33;4.10;;;12.70;99.90;;;;;;5072528;28;20215;-60
2023/10/30 11:15:33;;;;;;;10.57;4.27;;;12.70;99.90;;;;;;5090604;28;20219;-59
2023/10/30 11:18:15;;;;;;;10.47;4.97;;;12.70;99.90;;;;;;5091210;28;20227;-60
2023/10/30 11:20:43;;;;;;;13.17;5.73;;;12.70;99.90;;;;;;5088580;28;20215;-59
2023/10/30 11:23:13;;;;;;;21.13;12.67;;;12.70;99.90;;;;;;5074550;28;20796;-59
2023/10/30 11:25:46;;;;;;;11.20;7.10;;;12.70;99.90;;;;;;5086772;28;20303;-59
2023/10/30 11:28:16;;;;;;;12.60;5.67;;;12.70;99.90;;;;;;5081552;28;20188;-59
2023/10/30 11:30:46;;;;;;;8.53;4.90;;;12.70;99.90;;;;;;5089583;28;20212;-59
2023/10/30 11:33:21;;;;;;;4.90;4.40;;;12.80;99.90;;;;;;5086180;28;20216;-59
2023/10/30 11:36:31;;;;;;;15.20;5.30;;;12.90;99.90;;;;;;5084899;28;20281;-59
2023/10/30 11:39:20;;;;;;;11.03;5.97;;;13.00;99.90;;;;;;5087701;28;20901;-59
2023/10/30 11:41:53;;;;;;;8.30;4.40;;;13.00;99.90;;;;;;5087306;28;20242;-59
2023/10/30 11:44:30;;;;;;;10.03;3.67;;;13.10;99.90;;;;;;5085483;28;20227;-59
2023/10/30 11:46:59;;;;;;;11.23;3.90;;;13.10;99.90;;;;;;5082646;28;20216;-58
2023/10/30 11:49:32;;;;;;;12.67;4.00;;;13.20;99.90;;;;;;5084253;28;20193;-59
2023/10/30 11:52:09;;;;;;;5.27;3.20;;;13.10;99.90;;;;;;5082634;28;20231;-60
2023/10/30 11:54:40;;;;;;;8.70;3.57;;;13.00;99.90;;;;;;5081997;28;20554;-59
2023/10/30 11:57:09;;;;;;;4.73;2.90;;;13.00;99.90;;;;;;5090499;28;20275;-60
2023/10/30 11:59:39;;;;;;;4.73;3.13;;;13.00;99.90;;;;;;5085711;28;20593;-60
2023/10/30 12:02:07;;;;;;;8.70;2.90;;;13.00;99.90;;;;;;5086874;28;20251;-59
2023/10/30 12:04:35;;;;;;;4.50;3.00;;;13.00;99.90;;;;;;5083327;28;20199;-59
2023/10/30 12:07:04;;;;;;;5.77;2.23;;;13.00;99.90;;;;;;5080483;28;20200;-60
2023/10/30 12:09:33;;;;;;;5.00;2.00;;;12.90;99.90;;;;;;5085200;28;20611;-59
2023/10/30 12:12:01;;;;;;;4.67;1.90;;;12.80;99.90;;;;;;5090943;28;20214;-60
2023/10/30 12:14:30;;;;;;;7.67;2.57;;;12.70;99.90;;;;;;5089484;28;20326;-56
2023/10/30 12:17:00;;;;;;;7.90;2.10;;;12.80;99.90;;;;;;5087545;28;20236;-60
2023/10/30 12:19:28;;;;;;;3.90;2.70;;;12.80;99.90;;;;;;5088574;28;20200;-59
2023/10/30 12:21:56;;;;;;;4.37;1.90;;;12.80;99.90;;;;;;5086227;28;20223;-59
2023/10/30 12:24:26;;;;;;;4.37;1.90;;;12.70;99.90;;;;;;5086646;28;20216;-59
2023/10/30 12:26:54;;;;;;;3.17;1.63;;;12.70;99.90;;;;;;5086370;28;20721;-60
2023/10/30 12:29:23;;;;;;;7.07;1.97;;;12.60;99.90;;;;;;5065529;28;20211;-57
2023/10/30 12:31:52;;;;;;;6.67;2.20;;;12.50;99.90;;;;;;5076635;28;20199;-58
2023/10/30 12:34:24;;;;;;;11.87;2.17;;;12.50;99.90;;;;;;5087688;28;20196;-57
2023/10/30 12:36:53;;;;;;;9.47;2.17;;;12.50;99.90;;;;;;5072250;28;20230;-59
2023/10/30 12:39:22;;;;;;;11.60;3.13;;;12.40;99.90;;;;;;5087906;28;20315;-57
2023/10/30 12:41:55;;;;;;;11.37;4.17;;;12.30;99.90;;;;;;5082875;28;20574;-58
2023/10/30 12:44:26;;;;;;;7.53;3.00;;;12.30;99.90;;;;;;5086582;28;20862;-58
2023/10/30 12:46:54;;;;;;;8.10;3.63;;;12.20;99.90;;;;;;5089087;28;20760;-57
2023/10/30 12:49:24;;;;;;;7.70;4.03;;;12.20;99.90;;;;;;5087518;28;20188;-58
2023/10/30 12:51:55;;;;;;;10.60;2.60;;;12.20;99.90;;;;;;5087541;28;20231;-58